Time;durP1;ratioP1;P1;durP2;ratioP2;P2;SDS_P1;SDS_P2;PMS_P1;PMS_P2;Temp;Humidity;BMP_temperature;BMP_pressure;BME280_temperature;BME280_humidity;BME280_pressure;Samples;Min_cycle;Max_cycle;Signal;HPM_P1;HPM_P2
2021/12/24 00:01:03;;;;;;;27.40;12.10;;;;;;;-1.93;58.73;100972.16;117339;1185;22974;-54
2021/12/24 00:03:33;;;;;;;26.90;12.20;;;;;;;-1.91;58.88;100970.02;117465;1184;23540;-53
2021/12/24 00:06:03;;;;;;;28.00;12.90;;;;;;;-1.89;58.74;100960.66;117256;1184;21854;-57
2021/12/24 00:08:31;;;;;;;28.40;12.60;;;;;;;-1.83;58.77;100953.86;117316;1185;23470;-53
2021/12/24 00:11:02;;;;;;;24.60;12.70;;;;;;;-1.80;58.86;100943.72;117303;1186;21973;-53
2021/12/24 00:13:36;;;;;;;19.70;10.50;;;;;;;-1.76;58.82;100940.42;117345;1187;23000;-57
2021/12/24 00:16:11;;;;;;;29.50;15.20;;;;;;;-1.73;58.75;100934.52;117374;1185;22930;-57
2021/12/24 00:37:36;;;;;;;25.80;13.50;;;;;;;-1.54;58.51;100879.16;117363;1185;22930;-54
2021/12/24 00:40:29;;;;;;;25.30;12.10;;;;;;;-1.57;58.60;100874.71;117349;1180;21831;-54
2021/12/24 00:42:57;;;;;;;21.10;11.10;;;;;;;-1.48;58.70;100864.23;117371;1180;23784;-52
2021/12/24 00:45:33;;;;;;;24.30;11.40;;;;;;;-1.44;58.68;100857.70;117325;1188;21854;-53
2021/12/24 00:48:03;;;;;;;25.80;12.10;;;;;;;-1.46;58.41;100857.64;117412;1186;22910;-53
2021/12/24 00:50:47;;;;;;;21.40;11.30;;;;;;;-1.50;58.56;100852.28;117374;1184;21840;-54
2021/12/24 00:56:08;;;;;;;22.80;11.60;;;;;;;-1.51;58.67;100829.20;117362;1185;23194;-54
2021/12/24 00:58:36;;;;;;;20.80;10.60;;;;;;;-1.48;58.73;100815.02;117348;1185;21882;-57
2021/12/24 01:01:06;;;;;;;20.80;10.60;;;;;;;-1.46;58.57;100806.52;117376;1182;21871;-55
2021/12/24 01:03:34;;;;;;;17.40;11.20;;;;;;;-1.42;58.68;100801.52;117370;1185;22721;-54
2021/12/24 01:06:03;;;;;;;18.50;9.90;;;;;;;-1.38;58.57;100800.83;117318;1183;21845;-54
2021/12/24 01:08:33;;;;;;;20.00;10.00;;;;;;;-1.33;58.71;100794.48;117365;1189;23073;-54
2021/12/24 01:11:04;;;;;;;17.70;9.80;;;;;;;-1.34;58.63;100788.09;117435;1183;21848;-59
2021/12/24 01:13:32;;;;;;;18.40;9.60;;;;;;;-1.37;58.64;100785.52;117322;1185;22912;-57
2021/12/24 01:16:07;;;;;;;19.60;9.40;;;;;;;-1.31;58.66;100778.54;117370;1185;21984;-54
2021/12/24 01:18:51;;;;;;;20.20;10.20;;;;;;;-1.30;58.78;100774.27;117413;1185;23475;-54
2021/12/24 01:24:12;;;;;;;18.70;9.30;;;;;;;-1.25;58.75;100764.68;117344;1184;22289;-54
2021/12/24 01:40:29;;;;;;;17.40;9.30;;;;;;;-1.16;58.82;100711.65;117326;1183;21895;-53
2021/12/24 01:42:57;;;;;;;16.00;9.20;;;;;;;-1.15;58.75;100699.67;117332;1186;22506;-57
2021/12/24 01:45:26;;;;;;;17.80;9.60;;;;;;;-1.13;58.82;100689.26;117344;1186;22504;-53
2021/12/24 01:48:06;;;;;;;17.20;9.10;;;;;;;-1.12;58.83;100681.53;117298;1182;21879;-54
2021/12/24 01:50:35;;;;;;;18.70;10.20;;;;;;;-1.12;58.83;100673.27;117346;1183;21859;-57
2021/12/24 01:53:04;;;;;;;18.20;10.20;;;;;;;-1.10;58.98;100670.40;117361;1185;21855;-57
2021/12/24 01:55:33;;;;;;;16.90;9.80;;;;;;;-1.10;58.76;100662.82;117323;1184;21954;-57
2021/12/24 01:58:01;;;;;;;18.50;9.60;;;;;;;-1.09;58.72;100648.73;117315;1186;23896;-56
2021/12/24 02:00:38;;;;;;;16.10;10.10;;;;;;;-1.07;58.88;100640.38;117366;1185;21856;-53
2021/12/24 02:03:07;;;;;;;19.60;9.80;;;;;;;-1.05;58.92;100632.36;117377;1185;21883;-57
2021/12/24 02:05:36;;;;;;;16.10;9.00;;;;;;;-1.03;58.96;100628.30;117379;1185;21862;-57
2021/12/24 02:08:04;;;;;;;19.50;10.10;;;;;;;-0.99;58.94;100623.30;117434;1182;24134;-54
2021/12/24 02:10:34;;;;;;;17.50;7.90;;;;;;;-0.93;58.87;100619.05;117321;1186;23470;-54
2021/12/24 02:13:02;;;;;;;14.30;8.60;;;;;;;-0.85;59.10;100611.25;117328;1185;21859;-57
2021/12/24 02:28:51;;;;;;;13.30;6.70;;;;;;;-0.24;58.84;100553.45;117429;1185;23457;-54
2021/12/24 02:31:22;;;;;;;13.40;7.50;;;;;;;-0.16;58.73;100543.17;117353;1185;21858;-58
2021/12/24 02:33:51;;;;;;;11.70;6.80;;;;;;;-0.11;58.87;100534.88;117393;1186;22917;-57
2021/12/24 02:36:20;;;;;;;11.60;6.60;;;;;;;-0.07;58.78;100532.27;117389;1183;22641;-57
2021/12/24 02:38:49;;;;;;;12.70;6.90;;;;;;;-0.03;58.97;100528.44;117399;1185;21899;-57
2021/12/24 02:41:17;;;;;;;10.70;6.30;;;;;;;0.00;58.75;100521.63;117371;1186;21860;-57
2021/12/24 02:43:47;;;;;;;11.40;6.80;;;;;;;0.02;58.99;100516.85;117376;1185;21853;-59
2021/12/24 02:46:28;;;;;;;20.40;6.20;;;;;;;0.08;58.85;100506.36;117368;1186;22986;-53
2021/12/24 02:49:07;;;;;;;12.70;6.70;;;;;;;0.15;58.76;100500.54;117356;1186;21860;-57
2021/12/24 02:54:22;;;;;;;11.00;6.60;;;;;;;0.20;58.68;100486.04;117419;1185;21891;-56
2021/12/24 02:56:54;;;;;;;10.00;7.00;;;;;;;0.21;58.74;100476.92;117337;1185;21857;-58
2021/12/24 02:59:26;;;;;;;10.20;6.30;;;;;;;0.25;58.52;100473.40;117317;1183;21859;-57
2021/12/24 03:01:56;;;;;;;10.60;6.40;;;;;;;0.29;58.68;100462.13;117360;1184;23360;-58
2021/12/24 03:04:24;;;;;;;15.60;9.40;;;;;;;0.36;58.74;100452.17;117390;1185;22956;-58
2021/12/24 03:06:53;;;;;;;13.70;8.40;;;;;;;0.38;58.80;100439.45;117347;1185;22911;-54
2021/12/24 03:09:22;;;;;;;16.50;8.20;;;;;;;0.36;58.96;100433.89;117384;1186;22917;-55
2021/12/24 03:11:52;;;;;;;15.20;8.80;;;;;;;0.36;59.12;100428.52;117349;1186;23430;-55
2021/12/24 03:14:21;;;;;;;12.80;7.60;;;;;;;0.39;59.15;100430.67;117335;1186;21847;-57
2021/12/24 03:16:56;;;;;;;11.50;7.70;;;;;;;0.42;59.15;100428.19;117397;1186;22158;-54
2021/12/24 03:19:28;;;;;;;12.20;7.40;;;;;;;0.43;58.97;100424.60;117334;1185;21872;-54
2021/12/24 03:24:38;;;;;;;10.90;5.90;;;;;;;0.50;59.25;100421.86;117310;1182;21889;-55
2021/12/24 03:27:07;;;;;;;9.00;5.50;;;;;;;0.53;59.14;100413.66;117368;1185;21857;-57
2021/12/24 03:29:35;;;;;;;12.40;7.60;;;;;;;0.54;59.49;100408.35;117380;1183;21866;-56
2021/12/24 03:32:13;;;;;;;9.80;6.00;;;;;;;0.58;59.22;100404.30;117350;1182;23148;-57
2021/12/24 03:34:42;;;;;;;9.10;6.20;;;;;;;0.61;59.25;100403.87;117364;1182;23446;-57
2021/12/24 03:37:10;;;;;;;10.80;5.70;;;;;;;0.66;59.33;100395.19;117402;1182;21886;-57
2021/12/24 03:39:38;;;;;;;9.30;5.90;;;;;;;0.69;59.18;100390.63;117425;1185;21891;-58
2021/12/24 03:42:07;;;;;;;8.50;5.30;;;;;;;0.71;59.04;100388.09;117357;1185;21854;-56
2021/12/24 03:44:53;;;;;;;7.90;4.80;;;;;;;0.67;59.34;100385.70;117255;1182;21874;-58
2021/12/24 03:47:22;;;;;;;8.40;5.00;;;;;;;0.69;59.29;100378.89;117337;1186;21861;-55
2021/12/24 03:49:57;;;;;;;8.90;4.30;;;;;;;0.72;59.08;100374.29;117398;1186;21889;-56
2021/12/24 03:55:12;;;;;;;10.20;4.50;;;;;;;0.79;59.25;100363.61;117313;1185;21857;-55
2021/12/24 03:57:41;;;;;;;8.60;5.10;;;;;;;0.83;59.08;100365.77;117368;1185;23837;-56
2021/12/24 04:00:10;;;;;;;8.10;4.90;;;;;;;0.85;59.25;100358.23;117331;1181;21870;-56
2021/12/24 04:02:38;;;;;;;7.80;4.90;;;;;;;0.87;59.02;100352.60;117352;1185;23560;-56
2021/12/24 04:05:08;;;;;;;10.40;6.00;;;;;;;0.89;58.94;100349.00;117384;1185;21871;-58
2021/12/24 04:07:36;;;;;;;9.80;5.60;;;;;;;0.89;59.03;100347.97;117341;1185;21849;-55
2021/12/24 04:10:13;;;;;;;8.10;4.70;;;;;;;0.91;59.11;100338.67;117380;1182;21849;-58
2021/12/24 04:12:42;;;;;;;7.50;4.90;;;;;;;0.92;59.21;100332.83;117355;1185;22924;-55
2021/12/24 04:15:11;;;;;;;6.90;4.30;;;;;;;0.93;59.25;100322.84;117354;1186;21864;-56
2021/12/24 04:17:44;;;;;;;8.60;4.60;;;;;;;0.95;59.15;100319.43;117318;1182;21879;-55
2021/12/24 04:25:30;;;;;;;8.20;4.50;;;;;;;0.97;59.07;100310.86;117313;1186;21854;-56
2021/12/24 04:27:59;;;;;;;6.30;3.40;;;;;;;0.98;59.26;100299.81;117297;1183;23424;-58
2021/12/24 04:30:35;;;;;;;7.50;4.40;;;;;;;1.03;59.19;100292.35;117341;1185;21845;-56
2021/12/24 04:33:28;;;;;;;7.40;5.20;;;;;;;1.05;59.01;100285.48;117349;1185;21853;-56
2021/12/24 04:52:41;;;;;;;10.80;4.50;;;;;;;1.07;58.87;100254.27;117352;1185;21896;-56
2021/12/24 05:03:52;;;;;;;8.30;4.90;;;;;;;1.09;59.04;100236.52;117397;1182;22922;-56
2021/12/24 05:06:26;;;;;;;7.80;4.90;;;;;;;1.09;58.97;100228.55;117324;1185;21866;-56
2021/12/24 05:08:59;;;;;;;8.20;4.90;;;;;;;1.08;58.92;100220.06;117356;1182;23722;-58
2021/12/24 05:11:27;;;;;;;7.80;5.30;;;;;;;1.06;59.02;100214.30;117411;1185;21868;-58
2021/12/24 05:13:56;;;;;;;8.40;5.10;;;;;;;1.08;59.04;100215.73;117428;1185;23457;-56
2021/12/24 05:16:43;;;;;;;9.20;5.30;;;;;;;1.09;59.13;100206.95;117339;1183;21844;-56
2021/12/24 05:21:59;;;;;;;8.10;5.50;;;;;;;1.09;59.04;100201.42;117346;1185;22754;-58
2021/12/24 05:24:30;;;;;;;8.20;5.60;;;;;;;1.08;59.23;100193.77;117344;1185;21911;-56
2021/12/24 05:27:00;;;;;;;7.70;5.10;;;;;;;1.12;58.81;100190.26;117338;1186;22165;-58
2021/12/24 05:29:30;;;;;;;8.20;5.30;;;;;;;1.13;58.87;100184.57;117355;1185;23554;-56
2021/12/24 05:32:00;;;;;;;9.10;5.70;;;;;;;1.13;58.81;100176.96;117322;1185;22829;-56
2021/12/24 05:34:28;;;;;;;10.40;5.50;;;;;;;1.12;58.83;100172.42;117361;1182;21858;-56
2021/12/24 05:36:57;;;;;;;9.00;5.50;;;;;;;1.10;58.84;100168.10;117401;1185;21855;-56
2021/12/24 05:39:25;;;;;;;8.10;5.40;;;;;;;1.07;58.79;100164.39;117298;1183;21913;-58
2021/12/24 05:41:54;;;;;;;8.90;5.80;;;;;;;1.05;58.90;100159.16;117277;1186;21934;-58
2021/12/24 05:44:22;;;;;;;8.50;5.70;;;;;;;1.00;59.04;100160.08;117269;1186;22840;-55
2021/12/24 05:46:50;;;;;;;10.50;5.70;;;;;;;0.99;59.08;100154.52;117354;1186;21898;-56
2021/12/24 05:49:19;;;;;;;10.90;6.10;;;;;;;0.99;58.92;100155.04;117405;1182;21860;-58
2021/12/24 05:51:47;;;;;;;9.40;5.60;;;;;;;0.99;59.27;100147.29;117215;1189;21857;-58
2021/12/24 05:54:16;;;;;;;10.50;6.80;;;;;;;0.99;58.82;100147.09;117277;1185;23270;-55
2021/12/24 05:56:45;;;;;;;10.80;6.60;;;;;;;0.99;58.95;100147.97;117389;1186;21867;-57
2021/12/24 05:59:14;;;;;;;10.00;6.50;;;;;;;1.02;58.96;100151.48;117348;1181;21856;-56
2021/12/24 06:01:42;;;;;;;10.70;6.00;;;;;;;1.05;59.02;100150.70;117306;1183;24142;-59
2021/12/24 06:04:11;;;;;;;10.20;6.10;;;;;;;1.02;58.91;100149.92;117290;1186;21853;-56
2021/12/24 06:06:40;;;;;;;10.70;6.50;;;;;;;1.02;59.15;100152.36;117337;1185;22932;-56
2021/12/24 06:09:08;;;;;;;9.70;6.10;;;;;;;1.04;58.79;100145.66;117315;1186;21857;-58
2021/12/24 06:11:37;;;;;;;10.40;6.00;;;;;;;1.05;58.75;100143.80;117319;1182;23436;-58
2021/12/24 06:14:11;;;;;;;10.70;5.80;;;;;;;1.04;58.83;100134.95;117295;1186;21908;-55
2021/12/24 06:16:50;;;;;;;11.70;7.00;;;;;;;1.06;58.83;100129.12;117136;1186;21863;-56
2021/12/24 06:19:20;;;;;;;12.30;7.00;;;;;;;1.10;59.00;100117.09;117446;1186;23522;-58
2021/12/24 06:21:49;;;;;;;11.40;5.90;;;;;;;1.15;58.85;100121.19;117359;1185;23462;-58
2021/12/24 06:24:18;;;;;;;10.30;6.00;;;;;;;1.14;58.90;100121.33;117276;1186;23468;-55
2021/12/24 06:26:47;;;;;;;14.00;6.10;;;;;;;1.16;58.79;100118.27;117054;1189;21857;-55
2021/12/24 06:29:15;;;;;;;11.40;7.50;;;;;;;1.17;58.86;100121.23;117316;1182;21850;-57
2021/12/24 06:31:44;;;;;;;10.00;6.30;;;;;;;1.22;58.94;100125.83;117325;1186;21908;-56
2021/12/24 06:34:18;;;;;;;11.90;6.60;;;;;;;1.28;58.91;100128.02;117372;1186;22001;-58
2021/12/24 06:36:48;;;;;;;9.90;6.40;;;;;;;1.27;59.10;100125.41;117399;1185;22526;-58
2021/12/24 06:39:17;;;;;;;;;;;;;;;1.27;58.85;100126.27;117376;1185;21851;-56
2021/12/24 06:41:45;;;;;;;12.80;6.90;;;;;;;1.35;59.06;100120.40;117294;1185;21887;-58
2021/12/24 06:44:14;;;;;;;10.50;6.40;;;;;;;1.39;58.82;100113.92;117321;1185;23637;-56
2021/12/24 06:46:42;;;;;;;11.90;7.20;;;;;;;1.40;58.79;100108.57;117381;1185;22107;-56
2021/12/24 06:49:11;;;;;;;10.80;6.70;;;;;;;1.39;58.81;100102.33;117337;1185;21910;-56
2021/12/24 06:51:40;;;;;;;15.80;9.00;;;;;;;1.38;58.70;100093.31;117359;1185;23063;-59
2021/12/24 06:54:10;;;;;;;11.10;6.50;;;;;;;1.37;58.88;100088.44;117339;1185;22914;-58
2021/12/24 06:56:46;;;;;;;10.20;6.60;;;;;;;1.38;58.81;100080.34;117331;1185;23457;-56
2021/12/24 06:59:15;;;;;;;12.50;7.30;;;;;;;1.49;58.80;100073.30;117339;1185;23558;-57
2021/12/24 07:01:45;;;;;;;11.50;7.00;;;;;;;1.53;58.53;100070.96;117348;1185;21856;-57
2021/12/24 07:04:13;;;;;;;12.10;7.50;;;;;;;1.56;58.65;100063.91;117304;1186;21854;-55
2021/12/24 07:06:45;;;;;;;12.70;7.60;;;;;;;1.58;58.80;100061.88;117325;1185;21939;-55
2021/12/24 07:09:16;;;;;;;11.80;7.60;;;;;;;1.63;58.66;100052.64;117313;1186;21953;-58
2021/12/24 07:11:44;;;;;;;;;;;;;;;1.66;58.59;100042.67;117320;1185;21839;-55
2021/12/24 07:14:13;;;;;;;14.40;7.30;;;;;;;1.68;58.66;100031.45;117381;1185;24156;-56
2021/12/24 07:16:46;;;;;;;13.60;7.40;;;;;;;1.69;58.51;100024.57;117341;1180;22921;-55
2021/12/24 07:19:15;;;;;;;13.00;7.40;;;;;;;1.71;58.53;100015.96;117379;1186;21848;-55
2021/12/24 07:21:46;;;;;;;12.10;7.40;;;;;;;1.73;58.61;100010.97;117343;1185;23541;-57
2021/12/24 07:24:15;;;;;;;11.80;6.90;;;;;;;1.76;58.44;100003.92;117267;1185;22622;-59
2021/12/24 07:26:43;;;;;;;11.90;7.40;;;;;;;1.80;58.58;100000.53;117297;1185;24158;-59
2021/12/24 07:29:12;;;;;;;11.00;7.20;;;;;;;1.83;58.51;99996.77;117351;1182;22903;-58
2021/12/24 07:31:40;;;;;;;11.70;7.30;;;;;;;1.85;58.57;99995.27;117349;1186;23437;-57
2021/12/24 07:34:08;;;;;;;11.20;6.60;;;;;;;1.90;58.42;99989.13;117384;1183;22814;-59
2021/12/24 07:36:37;;;;;;;11.90;7.30;;;;;;;1.93;58.54;99983.63;117373;1180;22941;-55
2021/12/24 07:39:05;;;;;;;10.80;6.70;;;;;;;1.97;58.57;99984.04;117380;1185;22911;-56
2021/12/24 07:41:34;;;;;;;12.00;7.30;;;;;;;2.00;58.59;99979.58;117327;1186;24212;-58
2021/12/24 07:44:03;;;;;;;11.50;6.60;;;;;;;2.03;58.29;99974.95;117398;1185;23563;-55
2021/12/24 07:46:38;;;;;;;10.30;6.30;;;;;;;2.05;58.40;99970.84;117346;1183;21908;-55
2021/12/24 07:54:25;;;;;;;17.70;9.70;;;;;;;1.91;58.72;99962.31;117309;1183;21871;-55
2021/12/24 07:56:53;;;;;;;17.40;8.80;;;;;;;1.87;58.75;99958.09;117404;1185;21880;-55
2021/12/24 07:59:21;;;;;;;20.20;12.00;;;;;;;1.80;58.55;99954.52;117379;1183;21860;-56
2021/12/24 08:01:50;;;;;;;20.30;12.50;;;;;;;1.74;58.59;99954.08;117307;1185;21857;-55
2021/12/24 08:04:19;;;;;;;23.60;12.70;;;;;;;1.65;58.56;99952.36;117285;1185;22921;-57
2021/12/24 08:06:48;;;;;;;29.10;17.00;;;;;;;1.52;58.44;99948.70;117362;1186;21865;-56
2021/12/24 08:09:17;;;;;;;29.10;16.40;;;;;;;1.39;58.36;99939.63;117296;1185;21858;-57
2021/12/24 10:51:58;;;;;;;15.30;10.00;;;;;;;0.39;64.81;99551.58;115316;1204;556430;-57
2021/12/24 10:54:27;;;;;;;14.20;9.70;;;;;;;1.31;62.84;99537.59;116834;1191;21876;-57
2021/12/24 10:57:14;;;;;;;17.50;10.70;;;;;;;1.41;62.81;99531.47;116809;1189;23475;-57
2021/12/24 10:59:44;;;;;;;14.20;10.00;;;;;;;1.49;62.51;99518.09;116767;1182;21993;-54
2021/12/24 11:02:12;;;;;;;62.20;19.60;;;;;;;1.56;62.51;99515.55;116770;1189;22924;-56
2021/12/24 11:04:40;;;;;;;15.60;9.70;;;;;;;1.66;62.50;99512.55;117156;1185;22824;-57
2021/12/24 11:07:40;;;;;;;21.30;11.50;;;;;;;1.75;62.22;99506.59;117176;1186;22474;-55
2021/12/24 11:10:19;;;;;;;15.40;10.30;;;;;;;1.83;62.24;99501.63;117166;1186;24155;-55
2021/12/24 11:12:50;;;;;;;13.00;9.20;;;;;;;1.91;62.12;99498.60;117170;1177;23471;-55
2021/12/24 11:15:27;;;;;;;19.70;11.70;;;;;;;1.96;61.94;99493.27;117151;1186;21935;-55
2021/12/24 11:18:01;;;;;;;22.40;17.20;;;;;;;2.02;61.54;99487.60;117132;1189;21861;-57
2021/12/24 11:20:30;;;;;;;29.10;19.50;;;;;;;2.03;61.62;99478.44;117126;1186;22632;-55
2021/12/24 11:23:03;;;;;;;61.10;44.40;;;;;;;2.06;61.71;99469.98;117156;1186;21850;-57
2021/12/24 11:25:37;;;;;;;20.80;14.70;;;;;;;2.08;61.55;99464.30;117074;1189;21874;-56
2021/12/24 11:28:06;;;;;;;32.20;21.00;;;;;;;2.21;61.28;99463.35;117105;1186;23563;-56
2021/12/24 11:30:36;;;;;;;23.60;15.20;;;;;;;2.22;61.33;99460.92;117143;1188;21852;-56
2021/12/24 11:33:04;;;;;;;21.00;13.50;;;;;;;2.29;61.19;99458.73;117107;1186;22930;-57
2021/12/24 11:35:32;;;;;;;18.70;11.70;;;;;;;2.31;61.31;99446.45;117123;1186;24168;-55
2021/12/24 11:38:02;;;;;;;16.30;10.50;;;;;;;2.34;61.22;99444.56;117123;1187;23470;-57
2021/12/24 11:40:30;;;;;;;16.10;11.20;;;;;;;2.36;61.12;99447.69;117141;1186;23447;-57
2021/12/24 11:43:02;;;;;;;13.20;9.80;;;;;;;2.33;61.19;99445.09;117227;1186;21902;-55
2021/12/24 11:45:31;;;;;;;16.60;10.40;;;;;;;2.35;61.25;99437.48;117017;1188;21865;-55
2021/12/24 11:48:01;;;;;;;15.20;9.70;;;;;;;2.38;61.27;99437.84;117188;1189;21966;-55
2021/12/24 11:50:30;;;;;;;;;;;;;;;2.42;61.37;99426.95;117146;1185;21853;-56
2021/12/24 11:53:01;;;;;;;25.50;15.50;;;;;;;2.43;61.36;99422.11;117145;1189;22929;-55
2021/12/24 11:55:35;;;;;;;37.70;19.90;;;;;;;2.49;61.42;99417.64;116996;1189;21984;-58
2021/12/24 11:58:05;;;;;;;;;;;;;;;2.54;61.45;99416.79;117171;1186;23802;-56
2021/12/24 12:00:44;;;;;;;29.10;18.30;;;;;;;2.59;61.39;99412.50;117139;1188;21883;-56
2021/12/24 12:03:29;;;;;;;56.30;25.00;;;;;;;2.70;61.15;99399.02;117117;1188;24717;-59
2021/12/24 12:05:57;;;;;;;21.20;12.20;;;;;;;3.02;60.52;99386.97;117152;1186;23448;-56
2021/12/24 12:08:25;;;;;;;31.40;14.10;;;;;;;2.68;60.91;99388.27;117007;1186;23464;-56
2021/12/24 12:11:01;;;;;;;57.20;20.20;;;;;;;2.65;61.07;99388.79;117164;1189;23482;-59
2021/12/24 12:13:42;;;;;;;25.70;13.40;;;;;;;2.68;60.96;99380.64;117179;1186;22338;-59
2021/12/24 12:16:15;;;;;;;26.20;13.60;;;;;;;2.69;61.00;99383.07;117167;1186;22957;-56
2021/12/24 12:18:49;;;;;;;33.80;14.50;;;;;;;2.68;60.92;99383.95;117253;1186;21864;-56
2021/12/24 12:21:22;;;;;;;56.50;19.40;;;;;;;2.70;60.98;99376.85;117145;1186;23548;-58
2021/12/24 12:26:32;;;;;;;64.40;22.50;;;;;;;2.76;61.08;99375.83;117090;1186;23570;-57
2021/12/24 12:29:17;;;;;;;44.10;16.80;;;;;;;2.78;60.93;99378.09;117175;1182;22745;-58
2021/12/24 12:31:46;;;;;;;60.30;22.10;;;;;;;2.79;60.79;99380.01;117110;1186;22654;-59
2021/12/24 12:34:47;;;;;;;45.70;18.10;;;;;;;2.80;60.96;99379.66;117014;1185;23554;-58
2021/12/24 12:37:30;;;;;;;78.20;25.40;;;;;;;2.86;60.77;99378.29;116721;1192;21871;-58
2021/12/24 12:39:58;;;;;;;64.10;22.20;;;;;;;2.88;60.83;99382.98;116834;1189;22002;-56
2021/12/24 12:42:52;;;;;;;52.90;18.10;;;;;;;2.92;60.81;99385.58;116730;1184;23739;-55
2021/12/24 12:45:41;;;;;;;45.10;17.30;;;;;;;2.97;60.74;99392.36;116757;1189;23474;-56
2021/12/24 12:48:16;;;;;;;67.60;22.80;;;;;;;2.98;60.59;99392.19;116679;1191;23649;-58
2021/12/24 12:50:53;;;;;;;71.70;24.60;;;;;;;3.01;60.53;99391.16;116741;1191;21902;-58
2021/12/24 12:53:30;;;;;;;94.50;29.80;;;;;;;3.05;60.59;99385.11;116712;1189;24184;-56
2021/12/24 12:56:20;;;;;;;70.80;24.60;;;;;;;3.04;60.55;99383.20;116735;1190;23474;-58
2021/12/24 12:58:57;;;;;;;92.50;26.70;;;;;;;3.06;60.70;99377.83;116739;1190;23511;-58
2021/12/24 13:01:27;;;;;;;230.50;86.80;;;;;;;3.09;60.58;99373.85;116754;1190;21836;-55
2021/12/24 13:03:55;;;;;;;242.40;87.00;;;;;;;3.11;60.59;99370.37;116744;1189;22937;-56
2021/12/24 13:06:23;;;;;;;327.80;115.60;;;;;;;3.12;60.73;99365.34;116767;1191;24204;-55
2021/12/24 13:08:52;;;;;;;362.80;126.10;;;;;;;3.15;60.70;99369.00;116792;1189;23467;-54
2021/12/24 13:11:20;;;;;;;209.00;58.70;;;;;;;3.16;60.65;99361.88;116563;1189;24159;-55
2021/12/24 13:13:57;;;;;;;114.50;36.40;;;;;;;3.18;60.64;99360.33;116881;1189;22912;-58
2021/12/24 13:16:33;;;;;;;28.60;14.70;;;;;;;3.20;60.53;99356.00;116976;1186;21831;-59
2021/12/24 13:24:50;;;;;;;21.60;12.60;;;;;;;3.18;60.43;99340.56;117017;1188;24718;-55
2021/12/24 13:27:24;;;;;;;41.50;19.90;;;;;;;3.19;60.48;99337.27;116969;1182;23475;-56
2021/12/24 13:30:13;;;;;;;40.00;17.90;;;;;;;3.23;60.41;99334.68;116996;1188;23475;-56
2021/12/24 13:32:43;;;;;;;27.00;14.50;;;;;;;3.20;60.44;99334.16;117287;1185;22959;-55
2021/12/24 13:35:13;;;;;;;22.20;13.40;;;;;;;3.20;60.44;99331.56;117066;1185;21865;-57
2021/12/24 13:37:45;;;;;;;43.30;19.10;;;;;;;3.22;60.39;99335.89;117305;1186;21877;-55
2021/12/24 13:40:17;;;;;;;37.50;16.60;;;;;;;3.22;60.43;99350.45;117227;1189;23467;-57
2021/12/24 13:42:45;;;;;;;;;;;;;;;3.24;60.40;99352.02;117261;1186;23571;-55
2021/12/24 13:45:14;;;;;;;30.40;15.00;;;;;;;3.25;60.43;99349.59;117303;1182;22830;-56
2021/12/24 13:55:37;;;;;;;29.90;15.40;;;;;;;3.31;60.41;99344.91;117338;1186;23564;-54
2021/12/24 13:58:11;;;;;;;27.60;14.10;;;;;;;3.30;60.55;99340.41;117303;1186;23468;-54
2021/12/24 14:00:47;;;;;;;31.80;18.20;;;;;;;3.27;60.25;99335.21;117317;1182;22322;-54
2021/12/24 14:03:25;;;;;;;40.20;19.90;;;;;;;3.25;60.43;99351.51;117375;1185;22614;-57
2021/12/24 14:05:56;;;;;;;40.50;19.60;;;;;;;3.23;60.28;99357.58;117286;1183;22838;-57
2021/12/24 14:08:26;;;;;;;31.10;16.70;;;;;;;3.22;60.37;99355.14;117354;1185;22958;-56
2021/12/24 14:11:24;;;;;;;31.70;18.10;;;;;;;3.22;60.33;99345.60;117319;1182;21860;-55
2021/12/24 14:13:58;;;;;;;24.50;15.90;;;;;;;3.25;60.35;99342.48;117326;1183;23471;-57
2021/12/24 14:16:57;;;;;;;53.10;28.70;;;;;;;3.26;60.43;99343.36;117210;1186;22619;-54
2021/12/24 14:19:30;;;;;;;42.50;21.60;;;;;;;3.29;60.43;99331.39;117328;1183;23458;-55
2021/12/24 14:22:09;;;;;;;30.60;18.10;;;;;;;3.31;60.37;99324.46;117343;1184;21870;-55
2021/12/24 14:24:37;;;;;;;27.30;15.50;;;;;;;3.33;60.38;99331.56;117348;1185;21884;-56
2021/12/24 14:27:08;;;;;;;24.40;14.50;;;;;;;3.34;60.34;99342.83;117376;1186;21876;-55
2021/12/24 14:29:42;;;;;;;22.70;14.10;;;;;;;3.35;60.33;99347.52;117321;1185;23612;-55
2021/12/24 14:32:33;;;;;;;22.40;14.00;;;;;;;3.35;60.39;99349.77;117192;1186;21979;-56
2021/12/24 14:35:20;;;;;;;29.80;16.40;;;;;;;3.36;60.22;99357.75;117278;1185;23493;-55
2021/12/24 14:38:07;;;;;;;23.90;14.50;;;;;;;3.36;60.24;99369.02;117344;1186;22945;-56
2021/12/24 14:40:36;;;;;;;20.10;13.10;;;;;;;3.36;60.17;99367.80;117343;1185;21911;-56
2021/12/24 14:43:15;;;;;;;19.10;12.10;;;;;;;3.35;60.24;99366.60;117361;1185;22983;-55
2021/12/24 14:45:45;;;;;;;20.60;12.90;;;;;;;3.35;60.34;99361.05;117332;1185;23458;-55
2021/12/24 14:48:19;;;;;;;19.90;12.80;;;;;;;3.37;60.17;99362.77;117365;1186;21871;-55
2021/12/24 14:50:56;;;;;;;21.80;14.40;;;;;;;3.36;60.19;99362.77;117405;1182;23417;-56
2021/12/24 14:53:43;;;;;;;19.30;13.20;;;;;;;3.35;60.14;99356.02;117331;1185;23474;-55
2021/12/24 14:56:21;;;;;;;20.10;13.10;;;;;;;3.33;60.03;99360.34;117314;1186;21860;-55
2021/12/24 14:59:02;;;;;;;17.70;12.60;;;;;;;3.32;60.13;99357.05;117309;1182;21874;-56
2021/12/24 15:01:37;;;;;;;20.30;12.70;;;;;;;3.29;60.12;99358.10;117300;1186;23563;-56
2021/12/24 15:04:05;;;;;;;17.40;11.40;;;;;;;3.28;60.16;99356.54;117327;1183;23471;-56
2021/12/24 15:06:50;;;;;;;18.80;12.40;;;;;;;3.28;60.14;99349.95;117395;1183;23534;-57
2021/12/24 15:09:24;;;;;;;18.90;13.20;;;;;;;3.26;60.13;99348.56;117328;1182;23495;-57
2021/12/24 15:11:54;;;;;;;21.30;14.20;;;;;;;3.25;60.19;99355.14;117148;1185;21861;-55
2021/12/24 15:14:27;;;;;;;19.90;14.10;;;;;;;3.23;60.21;99363.30;117166;1186;21872;-56
2021/12/24 15:16:55;;;;;;;22.90;14.00;;;;;;;3.22;60.15;99363.46;117215;1185;21964;-56
2021/12/24 15:19:24;;;;;;;21.50;13.90;;;;;;;3.21;60.28;99360.67;117265;1185;23574;-56
2021/12/24 15:21:52;;;;;;;20.20;14.00;;;;;;;3.21;60.15;99353.58;117339;1185;21860;-57
2021/12/24 15:24:20;;;;;;;20.90;14.10;;;;;;;3.20;60.24;99350.96;117287;1183;24182;-56
2021/12/24 15:26:48;;;;;;;20.20;13.10;;;;;;;3.20;60.23;99349.07;117402;1186;23573;-55
2021/12/24 15:29:17;;;;;;;24.30;15.50;;;;;;;3.20;60.16;99345.60;117395;1185;23449;-56
2021/12/24 15:31:47;;;;;;;23.40;15.50;;;;;;;3.18;60.12;99347.34;117337;1186;24165;-55
2021/12/24 15:34:15;;;;;;;32.00;21.20;;;;;;;3.16;60.21;99351.14;117352;1185;23439;-56
2021/12/24 15:36:43;;;;;;;45.00;27.10;;;;;;;3.14;60.08;99355.99;117176;1186;23830;-56
2021/12/24 15:39:12;;;;;;;61.00;32.40;;;;;;;3.12;60.24;99360.48;117299;1182;23548;-55
2021/12/24 15:41:45;;;;;;;103.90;50.90;;;;;;;3.11;60.21;99356.15;117293;1182;21874;-55
2021/12/24 15:44:15;;;;;;;115.10;55.90;;;;;;;3.11;60.26;99353.39;117264;1182;22833;-56
2021/12/24 15:46:47;;;;;;;140.50;74.00;;;;;;;3.10;60.20;99356.34;117350;1185;21861;-56
2021/12/24 15:49:15;;;;;;;49.40;28.20;;;;;;;3.09;60.21;99354.08;117354;1182;22905;-56
2021/12/24 15:51:44;;;;;;;94.50;52.10;;;;;;;3.10;60.19;99371.06;117436;1179;21862;-56
2021/12/24 15:54:30;;;;;;;45.40;26.70;;;;;;;3.13;60.22;99382.33;117331;1181;23573;-55
2021/12/24 15:56:59;;;;;;;29.10;18.50;;;;;;;3.15;60.26;99395.34;117318;1182;24154;-55
2021/12/24 15:59:31;;;;;;;28.70;16.80;;;;;;;3.15;60.20;99401.58;117362;1185;22899;-56
2021/12/24 16:02:00;;;;;;;27.40;17.00;;;;;;;3.18;60.11;99384.95;117240;1186;22406;-57
2021/12/24 16:04:29;;;;;;;26.30;16.80;;;;;;;3.18;60.29;99361.73;117335;1185;23631;-57
2021/12/24 16:06:57;;;;;;;28.40;17.80;;;;;;;3.21;60.06;99365.02;117357;1185;22648;-57
2021/12/24 16:09:25;;;;;;;24.40;16.40;;;;;;;3.23;60.08;99380.45;117373;1183;23220;-57
2021/12/24 16:11:54;;;;;;;23.30;15.20;;;;;;;3.25;60.01;99379.77;117359;1182;21880;-57
2021/12/24 16:14:22;;;;;;;21.30;14.10;;;;;;;3.23;60.01;99374.56;117365;1182;22064;-57